sensor_id;sensor_type;location;lat;lon;timestamp;P1;durP1;ratioP1;P2;durP2;ratioP2
74108;SDS011;62466;47.566;7.786;2023-03-03T00:00:31;47.83;;;21.92;;
74108;SDS011;62466;47.566;7.786;2023-03-03T00:03:00;47.15;;;22.13;;
74108;SDS011;62466;47.566;7.786;2023-03-03T00:05:30;51.20;;;24.60;;
74108;SDS011;62466;47.566;7.786;2023-03-03T00:07:57;48.33;;;23.92;;
74108;SDS011;62466;47.566;7.786;2023-03-03T00:10:22;56.05;;;24.33;;
74108;SDS011;62466;47.566;7.786;2023-03-03T00:12:48;46.05;;;21.55;;
74108;SDS011;62466;47.566;7.786;2023-03-03T00:15:16;48.72;;;23.02;;
74108;SDS011;62466;47.566;7.786;2023-03-03T00:17:44;47.72;;;24.10;;
74108;SDS011;62466;47.566;7.786;2023-03-03T00:23:41;43.40;;;21.33;;
74108;SDS011;62466;47.566;7.786;2023-03-03T00:25:49;43.05;;;22.55;;
74108;SDS011;62466;47.566;7.786;2023-03-03T00:28:26;53.95;;;23.55;;
74108;SDS011;62466;47.566;7.786;2023-03-03T00:30:57;44.13;;;23.17;;
74108;SDS011;62466;47.566;7.786;2023-03-03T00:33:29;46.15;;;20.70;;
74108;SDS011;62466;47.566;7.786;2023-03-03T00:36:21;46.40;;;22.27;;
74108;SDS011;62466;47.566;7.786;2023-03-03T00:38:52;51.45;;;22.50;;
74108;SDS011;62466;47.566;7.786;2023-03-03T00:41:22;56.55;;;23.88;;
74108;SDS011;62466;47.566;7.786;2023-03-03T00:43:49;44.10;;;22.25;;
74108;SDS011;62466;47.566;7.786;2023-03-03T00:46:22;42.42;;;20.55;;
74108;SDS011;62466;47.566;7.786;2023-03-03T00:48:48;47.30;;;22.25;;
74108;SDS011;62466;47.566;7.786;2023-03-03T00:51:33;47.13;;;22.85;;
74108;SDS011;62466;47.566;7.786;2023-03-03T00:53:59;53.38;;;24.65;;
74108;SDS011;62466;47.566;7.786;2023-03-03T00:56:25;46.83;;;21.95;;
74108;SDS011;62466;47.566;7.786;2023-03-03T00:58:52;48.53;;;24.65;;
74108;SDS011;62466;47.566;7.786;2023-03-03T01:01:20;48.47;;;23.40;;
74108;SDS011;62466;47.566;7.786;2023-03-03T01:03:49;46.63;;;22.30;;
74108;SDS011;62466;47.566;7.786;2023-03-03T01:06:15;51.33;;;22.83;;
74108;SDS011;62466;47.566;7.786;2023-03-03T01:08:41;45.25;;;22.88;;
74108;SDS011;62466;47.566;7.786;2023-03-03T01:11:11;51.45;;;24.05;;
74108;SDS011;62466;47.566;7.786;2023-03-03T01:13:40;49.92;;;22.95;;
74108;SDS011;62466;47.566;7.786;2023-03-03T01:16:08;47.90;;;22.10;;
74108;SDS011;62466;47.566;7.786;2023-03-03T01:18:36;48.97;;;22.58;;
74108;SDS011;62466;47.566;7.786;2023-03-03T01:21:04;43.35;;;21.92;;
74108;SDS011;62466;47.566;7.786;2023-03-03T01:23:30;49.85;;;22.02;;
74108;SDS011;62466;47.566;7.786;2023-03-03T01:25:56;46.60;;;21.98;;
74108;SDS011;62466;47.566;7.786;2023-03-03T01:28:22;47.92;;;21.98;;
74108;SDS011;62466;47.566;7.786;2023-03-03T01:30:47;48.13;;;21.77;;
74108;SDS011;62466;47.566;7.786;2023-03-03T01:33:13;45.70;;;20.33;;
74108;SDS011;62466;47.566;7.786;2023-03-03T01:35:42;46.08;;;22.50;;
74108;SDS011;62466;47.566;7.786;2023-03-03T01:38:09;43.47;;;21.77;;
74108;SDS011;62466;47.566;7.786;2023-03-03T01:40:34;47.60;;;21.13;;
74108;SDS011;62466;47.566;7.786;2023-03-03T01:43:01;48.13;;;22.40;;
74108;SDS011;62466;47.566;7.786;2023-03-03T01:45:30;50.05;;;23.70;;
74108;SDS011;62466;47.566;7.786;2023-03-03T01:50:48;45.58;;;21.52;;
74108;SDS011;62466;47.566;7.786;2023-03-03T01:53:15;50.28;;;22.17;;
74108;SDS011;62466;47.566;7.786;2023-03-03T01:55:47;48.22;;;22.45;;
74108;SDS011;62466;47.566;7.786;2023-03-03T02:01:01;50.05;;;23.13;;
74108;SDS011;62466;47.566;7.786;2023-03-03T02:03:32;46.42;;;21.10;;
74108;SDS011;62466;47.566;7.786;2023-03-03T02:05:59;49.03;;;23.27;;
74108;SDS011;62466;47.566;7.786;2023-03-03T02:08:30;44.90;;;21.65;;
74108;SDS011;62466;47.566;7.786;2023-03-03T02:11:01;48.92;;;23.27;;
74108;SDS011;62466;47.566;7.786;2023-03-03T02:13:27;54.00;;;22.92;;
74108;SDS011;62466;47.566;7.786;2023-03-03T02:15:53;51.35;;;24.10;;
74108;SDS011;62466;47.566;7.786;2023-03-03T02:18:20;48.45;;;20.98;;
74108;SDS011;62466;47.566;7.786;2023-03-03T02:20:56;42.20;;;20.88;;
74108;SDS011;62466;47.566;7.786;2023-03-03T02:23:39;46.20;;;21.33;;
74108;SDS011;62466;47.566;7.786;2023-03-03T02:26:08;49.10;;;22.42;;
74108;SDS011;62466;47.566;7.786;2023-03-03T02:28:34;41.40;;;20.55;;
74108;SDS011;62466;47.566;7.786;2023-03-03T02:31:05;40.35;;;20.45;;
74108;SDS011;62466;47.566;7.786;2023-03-03T02:33:37;47.47;;;21.85;;
74108;SDS011;62466;47.566;7.786;2023-03-03T02:36:03;46.45;;;21.40;;
74108;SDS011;62466;47.566;7.786;2023-03-03T02:38:31;38.67;;;20.08;;
74108;SDS011;62466;47.566;7.786;2023-03-03T02:46:29;46.30;;;21.65;;
74108;SDS011;62466;47.566;7.786;2023-03-03T02:48:59;43.67;;;20.50;;
74108;SDS011;62466;47.566;7.786;2023-03-03T02:51:25;48.83;;;22.05;;
74108;SDS011;62466;47.566;7.786;2023-03-03T02:53:50;41.33;;;21.20;;
74108;SDS011;62466;47.566;7.786;2023-03-03T02:56:16;43.22;;;21.38;;
74108;SDS011;62466;47.566;7.786;2023-03-03T02:58:42;46.72;;;23.13;;
74108;SDS011;62466;47.566;7.786;2023-03-03T03:01:07;48.88;;;22.45;;
74108;SDS011;62466;47.566;7.786;2023-03-03T03:03:33;49.58;;;21.02;;
74108;SDS011;62466;47.566;7.786;2023-03-03T03:06:01;49.58;;;21.45;;
74108;SDS011;62466;47.566;7.786;2023-03-03T03:08:27;47.95;;;21.73;;
74108;SDS011;62466;47.566;7.786;2023-03-03T03:10:53;52.45;;;22.13;;
74108;SDS011;62466;47.566;7.786;2023-03-03T03:13:21;46.13;;;22.45;;
74108;SDS011;62466;47.566;7.786;2023-03-03T03:15:49;40.22;;;20.83;;
74108;SDS011;62466;47.566;7.786;2023-03-03T03:18:14;47.17;;;21.85;;
74108;SDS011;62466;47.566;7.786;2023-03-03T03:20:42;49.35;;;22.25;;
74108;SDS011;62466;47.566;7.786;2023-03-03T03:23:08;47.72;;;21.30;;
74108;SDS011;62466;47.566;7.786;2023-03-03T03:25:34;50.97;;;22.50;;
74108;SDS011;62466;47.566;7.786;2023-03-03T03:28:07;46.60;;;22.38;;
74108;SDS011;62466;47.566;7.786;2023-03-03T03:30:34;45.67;;;22.33;;
74108;SDS011;62466;47.566;7.786;2023-03-03T03:33:00;50.13;;;21.00;;
74108;SDS011;62466;47.566;7.786;2023-03-03T03:35:26;49.20;;;23.00;;
74108;SDS011;62466;47.566;7.786;2023-03-03T03:37:51;46.00;;;22.25;;
74108;SDS011;62466;47.566;7.786;2023-03-03T03:40:17;41.65;;;18.83;;
74108;SDS011;62466;47.566;7.786;2023-03-03T03:42:43;44.05;;;20.63;;
74108;SDS011;62466;47.566;7.786;2023-03-03T03:45:09;48.03;;;22.27;;
74108;SDS011;62466;47.566;7.786;2023-03-03T03:50:06;46.35;;;20.98;;
74108;SDS011;62466;47.566;7.786;2023-03-03T03:52:33;45.45;;;23.02;;
74108;SDS011;62466;47.566;7.786;2023-03-03T03:54:59;45.15;;;21.27;;
74108;SDS011;62466;47.566;7.786;2023-03-03T03:57:25;48.20;;;21.33;;
74108;SDS011;62466;47.566;7.786;2023-03-03T03:59:51;53.08;;;22.63;;
74108;SDS011;62466;47.566;7.786;2023-03-03T04:02:16;45.20;;;22.17;;
74108;SDS011;62466;47.566;7.786;2023-03-03T04:04:42;47.83;;;23.88;;
74108;SDS011;62466;47.566;7.786;2023-03-03T04:07:08;51.90;;;24.58;;
74108;SDS011;62466;47.566;7.786;2023-03-03T04:09:33;52.53;;;23.35;;
74108;SDS011;62466;47.566;7.786;2023-03-03T04:11:59;54.10;;;24.38;;
74108;SDS011;62466;47.566;7.786;2023-03-03T04:14:26;49.58;;;22.70;;
74108;SDS011;62466;47.566;7.786;2023-03-03T04:16:51;54.67;;;22.67;;
74108;SDS011;62466;47.566;7.786;2023-03-03T04:19:17;54.28;;;23.02;;
74108;SDS011;62466;47.566;7.786;2023-03-03T04:21:43;49.67;;;23.23;;
74108;SDS011;62466;47.566;7.786;2023-03-03T04:24:08;46.92;;;24.77;;
74108;SDS011;62466;47.566;7.786;2023-03-03T04:26:36;53.85;;;24.45;;
74108;SDS011;62466;47.566;7.786;2023-03-03T04:29:02;52.88;;;25.73;;
74108;SDS011;62466;47.566;7.786;2023-03-03T04:31:28;50.55;;;24.13;;
74108;SDS011;62466;47.566;7.786;2023-03-03T04:33:54;46.25;;;22.92;;
74108;SDS011;62466;47.566;7.786;2023-03-03T04:36:21;55.28;;;23.90;;
74108;SDS011;62466;47.566;7.786;2023-03-03T04:38:47;45.13;;;22.83;;
74108;SDS011;62466;47.566;7.786;2023-03-03T04:41:13;50.80;;;22.60;;
74108;SDS011;62466;47.566;7.786;2023-03-03T04:43:39;49.92;;;23.70;;
74108;SDS011;62466;47.566;7.786;2023-03-03T04:46:05;52.10;;;24.40;;
74108;SDS011;62466;47.566;7.786;2023-03-03T04:48:31;50.78;;;23.85;;
74108;SDS011;62466;47.566;7.786;2023-03-03T04:50:57;54.88;;;24.38;;
74108;SDS011;62466;47.566;7.786;2023-03-03T04:53:24;51.28;;;22.67;;
74108;SDS011;62466;47.566;7.786;2023-03-03T04:55:50;50.63;;;22.13;;
74108;SDS011;62466;47.566;7.786;2023-03-03T04:58:17;54.95;;;24.00;;
74108;SDS011;62466;47.566;7.786;2023-03-03T05:00:51;53.08;;;24.33;;
74108;SDS011;62466;47.566;7.786;2023-03-03T05:03:17;57.72;;;22.90;;
74108;SDS011;62466;47.566;7.786;2023-03-03T05:05:44;48.33;;;21.92;;
74108;SDS011;62466;47.566;7.786;2023-03-03T05:08:11;52.08;;;21.88;;
74108;SDS011;62466;47.566;7.786;2023-03-03T05:10:37;49.95;;;22.60;;
74108;SDS011;62466;47.566;7.786;2023-03-03T05:13:02;50.08;;;22.90;;
74108;SDS011;62466;47.566;7.786;2023-03-03T05:15:29;51.00;;;23.35;;
74108;SDS011;62466;47.566;7.786;2023-03-03T05:17:54;46.53;;;20.92;;
74108;SDS011;62466;47.566;7.786;2023-03-03T05:20:22;46.05;;;21.35;;
74108;SDS011;62466;47.566;7.786;2023-03-03T05:22:48;51.80;;;22.85;;
74108;SDS011;62466;47.566;7.786;2023-03-03T05:25:13;45.33;;;22.48;;
74108;SDS011;62466;47.566;7.786;2023-03-03T05:27:39;50.65;;;23.35;;
74108;SDS011;62466;47.566;7.786;2023-03-03T05:30:04;55.13;;;25.45;;
74108;SDS011;62466;47.566;7.786;2023-03-03T05:32:31;57.15;;;23.55;;
74108;SDS011;62466;47.566;7.786;2023-03-03T05:35:06;52.22;;;25.00;;
74108;SDS011;62466;47.566;7.786;2023-03-03T05:37:31;55.05;;;24.45;;
74108;SDS011;62466;47.566;7.786;2023-03-03T05:39:57;52.47;;;23.85;;
74108;SDS011;62466;47.566;7.786;2023-03-03T05:42:23;49.95;;;23.45;;
74108;SDS011;62466;47.566;7.786;2023-03-03T05:44:48;52.63;;;24.75;;
74108;SDS011;62466;47.566;7.786;2023-03-03T05:47:13;53.35;;;24.40;;
74108;SDS011;62466;47.566;7.786;2023-03-03T05:49:39;49.17;;;24.35;;
74108;SDS011;62466;47.566;7.786;2023-03-03T05:52:05;51.03;;;24.35;;
74108;SDS011;62466;47.566;7.786;2023-03-03T05:54:30;53.97;;;24.42;;
74108;SDS011;62466;47.566;7.786;2023-03-03T05:56:55;57.38;;;23.77;;
74108;SDS011;62466;47.566;7.786;2023-03-03T05:59:21;50.58;;;23.13;;
74108;SDS011;62466;47.566;7.786;2023-03-03T06:01:50;55.38;;;24.63;;
74108;SDS011;62466;47.566;7.786;2023-03-03T06:04:16;55.00;;;23.70;;
74108;SDS011;62466;47.566;7.786;2023-03-03T06:06:41;56.95;;;25.30;;
74108;SDS011;62466;47.566;7.786;2023-03-03T06:09:07;50.58;;;22.73;;
74108;SDS011;62466;47.566;7.786;2023-03-03T06:11:32;50.63;;;24.52;;
74108;SDS011;62466;47.566;7.786;2023-03-03T06:13:58;47.63;;;23.38;;
74108;SDS011;62466;47.566;7.786;2023-03-03T06:16:24;51.80;;;22.77;;
74108;SDS011;62466;47.566;7.786;2023-03-03T06:18:49;55.70;;;23.63;;
74108;SDS011;62466;47.566;7.786;2023-03-03T06:21:14;51.58;;;23.63;;
74108;SDS011;62466;47.566;7.786;2023-03-03T06:23:40;58.38;;;24.15;;
74108;SDS011;62466;47.566;7.786;2023-03-03T06:26:05;50.78;;;23.58;;
74108;SDS011;62466;47.566;7.786;2023-03-03T06:28:31;54.33;;;25.40;;
74108;SDS011;62466;47.566;7.786;2023-03-03T06:30:56;56.05;;;25.30;;
74108;SDS011;62466;47.566;7.786;2023-03-03T06:33:22;58.75;;;26.73;;
74108;SDS011;62466;47.566;7.786;2023-03-03T06:35:49;52.88;;;24.92;;
74108;SDS011;62466;47.566;7.786;2023-03-03T06:38:18;52.05;;;24.10;;
74108;SDS011;62466;47.566;7.786;2023-03-03T06:40:44;59.35;;;24.90;;
74108;SDS011;62466;47.566;7.786;2023-03-03T06:43:10;49.85;;;22.92;;
74108;SDS011;62466;47.566;7.786;2023-03-03T06:45:35;50.45;;;23.75;;
74108;SDS011;62466;47.566;7.786;2023-03-03T06:48:01;48.70;;;24.00;;
74108;SDS011;62466;47.566;7.786;2023-03-03T06:50:26;57.45;;;26.90;;
74108;SDS011;62466;47.566;7.786;2023-03-03T06:53:25;51.00;;;23.58;;
74108;SDS011;62466;47.566;7.786;2023-03-03T06:55:44;54.28;;;23.73;;
74108;SDS011;62466;47.566;7.786;2023-03-03T06:58:11;54.95;;;24.60;;
74108;SDS011;62466;47.566;7.786;2023-03-03T07:00:41;57.83;;;24.88;;
74108;SDS011;62466;47.566;7.786;2023-03-03T07:03:15;52.17;;;24.85;;
74108;SDS011;62466;47.566;7.786;2023-03-03T07:05:42;57.25;;;24.48;;
74108;SDS011;62466;47.566;7.786;2023-03-03T07:08:12;61.20;;;25.67;;
74108;SDS011;62466;47.566;7.786;2023-03-03T07:10:42;55.97;;;24.75;;
74108;SDS011;62466;47.566;7.786;2023-03-03T07:13:19;52.45;;;24.92;;
74108;SDS011;62466;47.566;7.786;2023-03-03T07:15:49;69.72;;;26.52;;
74108;SDS011;62466;47.566;7.786;2023-03-03T07:18:29;52.40;;;24.20;;
74108;SDS011;62466;47.566;7.786;2023-03-03T07:20:57;52.70;;;26.70;;
74108;SDS011;62466;47.566;7.786;2023-03-03T07:23:24;48.88;;;22.67;;
74108;SDS011;62466;47.566;7.786;2023-03-03T07:25:51;59.25;;;25.35;;
74108;SDS011;62466;47.566;7.786;2023-03-03T07:28:27;60.05;;;25.88;;
74108;SDS011;62466;47.566;7.786;2023-03-03T07:30:53;53.03;;;24.98;;
74108;SDS011;62466;47.566;7.786;2023-03-03T07:35:56;62.30;;;25.13;;
74108;SDS011;62466;47.566;7.786;2023-03-03T07:40:55;50.90;;;24.15;;
74108;SDS011;62466;47.566;7.786;2023-03-03T07:45:56;54.45;;;23.50;;
74108;SDS011;62466;47.566;7.786;2023-03-03T07:48:40;53.20;;;24.63;;
74108;SDS011;62466;47.566;7.786;2023-03-03T07:53:47;53.28;;;24.40;;
74108;SDS011;62466;47.566;7.786;2023-03-03T07:56:20;51.60;;;23.95;;
74108;SDS011;62466;47.566;7.786;2023-03-03T07:58:51;50.08;;;23.90;;
74108;SDS011;62466;47.566;7.786;2023-03-03T08:04:22;56.13;;;25.08;;
74108;SDS011;62466;47.566;7.786;2023-03-03T08:06:54;51.85;;;24.70;;
74108;SDS011;62466;47.566;7.786;2023-03-03T08:15:22;48.08;;;23.73;;
74108;SDS011;62466;47.566;7.786;2023-03-03T08:17:49;47.17;;;22.33;;
74108;SDS011;62466;47.566;7.786;2023-03-03T08:22:54;54.00;;;23.75;;
74108;SDS011;62466;47.566;7.786;2023-03-03T08:25:19;50.53;;;24.25;;
74108;SDS011;62466;47.566;7.786;2023-03-03T08:27:45;49.35;;;23.17;;
74108;SDS011;62466;47.566;7.786;2023-03-03T08:30:11;52.83;;;23.95;;
74108;SDS011;62466;47.566;7.786;2023-03-03T08:32:36;51.80;;;24.13;;
74108;SDS011;62466;47.566;7.786;2023-03-03T08:35:02;53.28;;;24.92;;
74108;SDS011;62466;47.566;7.786;2023-03-03T08:37:27;56.75;;;23.83;;
74108;SDS011;62466;47.566;7.786;2023-03-03T08:39:53;47.33;;;22.70;;
74108;SDS011;62466;47.566;7.786;2023-03-03T08:42:18;51.13;;;24.30;;
74108;SDS011;62466;47.566;7.786;2023-03-03T08:44:44;60.40;;;30.02;;
74108;SDS011;62466;47.566;7.786;2023-03-03T08:47:09;52.88;;;25.30;;
74108;SDS011;62466;47.566;7.786;2023-03-03T08:49:34;53.08;;;25.20;;
74108;SDS011;62466;47.566;7.786;2023-03-03T08:52:00;49.15;;;23.95;;
74108;SDS011;62466;47.566;7.786;2023-03-03T08:54:25;55.35;;;24.90;;
74108;SDS011;62466;47.566;7.786;2023-03-03T08:56:51;51.92;;;23.20;;
74108;SDS011;62466;47.566;7.786;2023-03-03T08:59:16;47.60;;;22.10;;
74108;SDS011;62466;47.566;7.786;2023-03-03T09:01:42;47.50;;;23.05;;
74108;SDS011;62466;47.566;7.786;2023-03-03T09:04:09;46.92;;;22.65;;
74108;SDS011;62466;47.566;7.786;2023-03-03T09:06:34;45.42;;;21.90;;
74108;SDS011;62466;47.566;7.786;2023-03-03T09:09:00;54.90;;;22.83;;
74108;SDS011;62466;47.566;7.786;2023-03-03T09:11:26;50.92;;;22.52;;
74108;SDS011;62466;47.566;7.786;2023-03-03T09:14:08;50.78;;;23.55;;
74108;SDS011;62466;47.566;7.786;2023-03-03T09:16:36;52.13;;;23.73;;
74108;SDS011;62466;47.566;7.786;2023-03-03T09:19:15;44.13;;;22.20;;
74108;SDS011;62466;47.566;7.786;2023-03-03T09:21:58;48.92;;;22.98;;
74108;SDS011;62466;47.566;7.786;2023-03-03T09:24:27;50.72;;;23.45;;
74108;SDS011;62466;47.566;7.786;2023-03-03T09:26:54;59.33;;;22.80;;
74108;SDS011;62466;47.566;7.786;2023-03-03T09:29:27;52.28;;;24.20;;
74108;SDS011;62466;47.566;7.786;2023-03-03T09:31:55;46.47;;;21.15;;
74108;SDS011;62466;47.566;7.786;2023-03-03T09:37:00;54.10;;;24.15;;
74108;SDS011;62466;47.566;7.786;2023-03-03T09:39:27;53.80;;;23.48;;
74108;SDS011;62466;47.566;7.786;2023-03-03T09:50:11;50.65;;;21.58;;
74108;SDS011;62466;47.566;7.786;2023-03-03T10:08:21;42.47;;;21.80;;
74108;SDS011;62466;47.566;7.786;2023-03-03T10:18:57;46.40;;;20.40;;
74108;SDS011;62466;47.566;7.786;2023-03-03T10:21:38;44.80;;;20.45;;
74108;SDS011;62466;47.566;7.786;2023-03-03T10:24:26;42.60;;;19.83;;
74108;SDS011;62466;47.566;7.786;2023-03-03T10:40:48;63.38;;;24.17;;
74108;SDS011;62466;47.566;7.786;2023-03-03T10:43:38;51.15;;;21.90;;
74108;SDS011;62466;47.566;7.786;2023-03-03T10:56:58;48.85;;;22.13;;
74108;SDS011;62466;47.566;7.786;2023-03-03T11:02:21;48.67;;;21.58;;
74108;SDS011;62466;47.566;7.786;2023-03-03T11:05:03;49.63;;;22.48;;
74108;SDS011;62466;47.566;7.786;2023-03-03T11:07:34;50.08;;;22.70;;
74108;SDS011;62466;47.566;7.786;2023-03-03T11:36:54;43.92;;;22.00;;
74108;SDS011;62466;47.566;7.786;2023-03-03T11:39:23;42.50;;;21.85;;
74108;SDS011;62466;47.566;7.786;2023-03-03T11:44:34;42.28;;;21.98;;
74108;SDS011;62466;47.566;7.786;2023-03-03T11:49:49;44.67;;;22.27;;
74108;SDS011;62466;47.566;7.786;2023-03-03T11:52:24;44.47;;;21.70;;
74108;SDS011;62466;47.566;7.786;2023-03-03T11:55:15;46.30;;;24.15;;
74108;SDS011;62466;47.566;7.786;2023-03-03T11:57:44;47.30;;;24.35;;
74108;SDS011;62466;47.566;7.786;2023-03-03T12:00:29;44.15;;;22.70;;
74108;SDS011;62466;47.566;7.786;2023-03-03T12:13:28;43.08;;;23.27;;
74108;SDS011;62466;47.566;7.786;2023-03-03T12:32:50;46.38;;;24.30;;
74108;SDS011;62466;47.566;7.786;2023-03-03T12:35:35;43.38;;;25.02;;
74108;SDS011;62466;47.566;7.786;2023-03-03T12:40:56;42.35;;;24.08;;
74108;SDS011;62466;47.566;7.786;2023-03-03T12:43:55;41.47;;;24.13;;
74108;SDS011;62466;47.566;7.786;2023-03-03T12:46:58;46.72;;;24.58;;
74108;SDS011;62466;47.566;7.786;2023-03-03T12:49:43;44.88;;;24.08;;
74108;SDS011;62466;47.566;7.786;2023-03-03T12:52:27;47.67;;;25.00;;
74108;SDS011;62466;47.566;7.786;2023-03-03T13:00:27;46.70;;;24.05;;
74108;SDS011;62466;47.566;7.786;2023-03-03T13:03:31;43.97;;;24.73;;
74108;SDS011;62466;47.566;7.786;2023-03-03T13:14:18;42.50;;;24.48;;
74108;SDS011;62466;47.566;7.786;2023-03-03T13:20:04;47.38;;;24.92;;
74108;SDS011;62466;47.566;7.786;2023-03-03T13:22:50;49.90;;;25.15;;
74108;SDS011;62466;47.566;7.786;2023-03-03T13:31:10;44.17;;;24.85;;
74108;SDS011;62466;47.566;7.786;2023-03-03T13:36:06;52.65;;;25.50;;
74108;SDS011;62466;47.566;7.786;2023-03-03T13:39:10;47.17;;;25.48;;
74108;SDS011;62466;47.566;7.786;2023-03-03T13:52:20;47.05;;;24.05;;
74108;SDS011;62466;47.566;7.786;2023-03-03T13:54:50;46.03;;;24.90;;
74108;SDS011;62466;47.566;7.786;2023-03-03T14:00:47;46.58;;;24.92;;
74108;SDS011;62466;47.566;7.786;2023-03-03T14:06:08;41.63;;;24.02;;
74108;SDS011;62466;47.566;7.786;2023-03-03T14:19:29;40.60;;;23.45;;
74108;SDS011;62466;47.566;7.786;2023-03-03T14:22:17;39.25;;;23.73;;
74108;SDS011;62466;47.566;7.786;2023-03-03T14:35:33;48.78;;;25.10;;
74108;SDS011;62466;47.566;7.786;2023-03-03T14:38:14;44.45;;;24.40;;
74108;SDS011;62466;47.566;7.786;2023-03-03T14:40:44;46.33;;;24.73;;
74108;SDS011;62466;47.566;7.786;2023-03-03T14:43:21;50.83;;;25.42;;
74108;SDS011;62466;47.566;7.786;2023-03-03T14:45:48;48.97;;;25.02;;
74108;SDS011;62466;47.566;7.786;2023-03-03T14:48:18;49.42;;;25.90;;
74108;SDS011;62466;47.566;7.786;2023-03-03T14:55:46;47.78;;;25.63;;
74108;SDS011;62466;47.566;7.786;2023-03-03T14:58:23;44.78;;;24.10;;
74108;SDS011;62466;47.566;7.786;2023-03-03T15:00:49;52.20;;;26.30;;
74108;SDS011;62466;47.566;7.786;2023-03-03T15:03:22;49.42;;;25.42;;
74108;SDS011;62466;47.566;7.786;2023-03-03T15:05:52;52.60;;;24.33;;
74108;SDS011;62466;47.566;7.786;2023-03-03T15:08:33;54.15;;;25.20;;
74108;SDS011;62466;47.566;7.786;2023-03-03T15:13:51;52.20;;;23.77;;
74108;SDS011;62466;47.566;7.786;2023-03-03T15:16:29;54.50;;;24.58;;
74108;SDS011;62466;47.566;7.786;2023-03-03T15:21:36;50.35;;;24.10;;
74108;SDS011;62466;47.566;7.786;2023-03-03T15:24:24;52.50;;;24.83;;
74108;SDS011;62466;47.566;7.786;2023-03-03T15:27:41;48.15;;;23.98;;
74108;SDS011;62466;47.566;7.786;2023-03-03T15:30:38;50.08;;;23.75;;
74108;SDS011;62466;47.566;7.786;2023-03-03T15:33:26;47.15;;;23.70;;
74108;SDS011;62466;47.566;7.786;2023-03-03T15:36:08;54.60;;;24.27;;
74108;SDS011;62466;47.566;7.786;2023-03-03T15:38:44;48.05;;;23.25;;
74108;SDS011;62466;47.566;7.786;2023-03-03T15:44:18;49.65;;;23.63;;
74108;SDS011;62466;47.566;7.786;2023-03-03T15:46:49;50.38;;;24.35;;
74108;SDS011;62466;47.566;7.786;2023-03-03T16:00:24;52.95;;;24.30;;
74108;SDS011;62466;47.566;7.786;2023-03-03T16:02:53;46.28;;;24.92;;
74108;SDS011;62466;47.566;7.786;2023-03-03T16:05:33;47.13;;;23.38;;
74108;SDS011;62466;47.566;7.786;2023-03-03T16:08:21;47.70;;;25.25;;
74108;SDS011;62466;47.566;7.786;2023-03-03T16:13:38;51.60;;;24.42;;
74108;SDS011;62466;47.566;7.786;2023-03-03T16:16:14;54.38;;;26.45;;
74108;SDS011;62466;47.566;7.786;2023-03-03T16:18:52;50.58;;;24.45;;
74108;SDS011;62466;47.566;7.786;2023-03-03T16:21:31;52.80;;;25.45;;
74108;SDS011;62466;47.566;7.786;2023-03-03T16:24:21;55.75;;;25.17;;
74108;SDS011;62466;47.566;7.786;2023-03-03T16:26:54;49.33;;;24.60;;
74108;SDS011;62466;47.566;7.786;2023-03-03T16:34:54;47.30;;;23.88;;
74108;SDS011;62466;47.566;7.786;2023-03-03T16:50:25;54.13;;;25.25;;
74108;SDS011;62466;47.566;7.786;2023-03-03T16:55:53;56.28;;;25.60;;
74108;SDS011;62466;47.566;7.786;2023-03-03T17:10:05;50.80;;;25.30;;
74108;SDS011;62466;47.566;7.786;2023-03-03T17:12:42;57.00;;;25.00;;
74108;SDS011;62466;47.566;7.786;2023-03-03T17:23:59;51.67;;;24.17;;
74108;SDS011;62466;47.566;7.786;2023-03-03T17:26:56;52.28;;;25.02;;
74108;SDS011;62466;47.566;7.786;2023-03-03T17:32:29;50.85;;;23.85;;
74108;SDS011;62466;47.566;7.786;2023-03-03T17:49:13;52.88;;;23.85;;
74108;SDS011;62466;47.566;7.786;2023-03-03T17:51:54;55.33;;;24.58;;
74108;SDS011;62466;47.566;7.786;2023-03-03T17:54:46;46.95;;;23.17;;
74108;SDS011;62466;47.566;7.786;2023-03-03T18:05:18;53.80;;;25.95;;
74108;SDS011;62466;47.566;7.786;2023-03-03T18:16:21;52.03;;;25.67;;
74108;SDS011;62466;47.566;7.786;2023-03-03T18:21:38;56.25;;;24.38;;
74108;SDS011;62466;47.566;7.786;2023-03-03T18:38:29;56.00;;;24.65;;
74108;SDS011;62466;47.566;7.786;2023-03-03T18:41:20;57.83;;;27.08;;
74108;SDS011;62466;47.566;7.786;2023-03-03T18:43:57;62.60;;;28.77;;
74108;SDS011;62466;47.566;7.786;2023-03-03T18:59:08;59.85;;;27.25;;
74108;SDS011;62466;47.566;7.786;2023-03-03T19:05:20;63.63;;;27.60;;
74108;SDS011;62466;47.566;7.786;2023-03-03T19:07:49;56.83;;;26.88;;
74108;SDS011;62466;47.566;7.786;2023-03-03T19:10:55;56.92;;;25.90;;
74108;SDS011;62466;47.566;7.786;2023-03-03T19:13:38;53.60;;;26.08;;
74108;SDS011;62466;47.566;7.786;2023-03-03T19:16:09;55.00;;;27.90;;
74108;SDS011;62466;47.566;7.786;2023-03-03T19:19:07;57.85;;;26.40;;
74108;SDS011;62466;47.566;7.786;2023-03-03T19:25:29;59.15;;;26.63;;
74108;SDS011;62466;47.566;7.786;2023-03-03T19:28:40;51.42;;;24.67;;
74108;SDS011;62466;47.566;7.786;2023-03-03T19:31:11;54.13;;;26.05;;
74108;SDS011;62466;47.566;7.786;2023-03-03T19:33:51;55.25;;;25.10;;
74108;SDS011;62466;47.566;7.786;2023-03-03T19:36:26;49.00;;;24.55;;
74108;SDS011;62466;47.566;7.786;2023-03-03T19:50:08;59.60;;;28.75;;
74108;SDS011;62466;47.566;7.786;2023-03-03T19:52:48;58.45;;;29.10;;
74108;SDS011;62466;47.566;7.786;2023-03-03T20:02:08;60.95;;;29.55;;
74108;SDS011;62466;47.566;7.786;2023-03-03T20:06:49;64.78;;;30.08;;
74108;SDS011;62466;47.566;7.786;2023-03-03T20:09:33;55.33;;;27.58;;
74108;SDS011;62466;47.566;7.786;2023-03-03T20:12:14;58.42;;;26.63;;
74108;SDS011;62466;47.566;7.786;2023-03-03T20:14:46;56.42;;;27.13;;
74108;SDS011;62466;47.566;7.786;2023-03-03T20:17:26;58.75;;;28.10;;
74108;SDS011;62466;47.566;7.786;2023-03-03T20:20:08;62.53;;;30.15;;
74108;SDS011;62466;47.566;7.786;2023-03-03T20:22:54;61.58;;;28.67;;
74108;SDS011;62466;47.566;7.786;2023-03-03T20:33:47;56.30;;;27.50;;
74108;SDS011;62466;47.566;7.786;2023-03-03T20:52:18;53.35;;;27.08;;
74108;SDS011;62466;47.566;7.786;2023-03-03T21:00:30;57.55;;;28.13;;
74108;SDS011;62466;47.566;7.786;2023-03-03T21:03:23;54.22;;;25.73;;
74108;SDS011;62466;47.566;7.786;2023-03-03T21:05:54;59.35;;;25.85;;
74108;SDS011;62466;47.566;7.786;2023-03-03T21:11:14;55.05;;;25.80;;
74108;SDS011;62466;47.566;7.786;2023-03-03T21:13:47;56.88;;;27.38;;
74108;SDS011;62466;47.566;7.786;2023-03-03T21:21:30;53.92;;;28.83;;
74108;SDS011;62466;47.566;7.786;2023-03-03T21:24:06;54.40;;;26.77;;
74108;SDS011;62466;47.566;7.786;2023-03-03T21:26:47;62.05;;;29.17;;
74108;SDS011;62466;47.566;7.786;2023-03-03T21:29:16;57.75;;;26.23;;
74108;SDS011;62466;47.566;7.786;2023-03-03T21:31:48;55.67;;;27.52;;
74108;SDS011;62466;47.566;7.786;2023-03-03T21:34:31;61.30;;;28.55;;
74108;SDS011;62466;47.566;7.786;2023-03-03T21:37:04;52.10;;;25.63;;
74108;SDS011;62466;47.566;7.786;2023-03-03T21:39:40;59.38;;;26.20;;
74108;SDS011;62466;47.566;7.786;2023-03-03T21:42:11;57.67;;;28.88;;
74108;SDS011;62466;47.566;7.786;2023-03-03T21:44:50;61.95;;;27.67;;
74108;SDS011;62466;47.566;7.786;2023-03-03T21:47:22;58.90;;;27.08;;
74108;SDS011;62466;47.566;7.786;2023-03-03T21:49:51;61.58;;;27.63;;